Airfield :
LOGIN :

Register | Disclaimer

   EN    FR    IT 

 










Legend :    VFR   Marginal VFR   IFR   Intensive IFR   Very Intensive IFR
Visi :
Ceiling :
>= 8 km
>= 3000ft
5 to 8 km
1000 to 3000 ft
1500m to 5 km
500 to 1000 ft
800 to 1500m
200 to 500 ft
< 800m
< 200 ft
Symbols :   Thunderstorms  Fog  Heavy snow  Heavy precipitations  Wind > 20 kt
SIGMETs :     Misc.  Thunderstorms  Icing  Turbulence  Mountain Waves  Volcanic Ashes







- Airport Elevation : 74 ft
- IATA code : NDZ


ETMN - Cuxhaven Nordholz Sea AB

CURRENT METAR :
  • 281120Z 28008KT 9999 FEW020 SCT040 BKN065 10/03 Q1011 BLU BLU

EXPIRED METARs :
  • 281020Z 26006KT 9999 FEW018TCU BKN040 08/04 Q1012 BLU BLU
  • 280938Z 29010KT 9999 SCT018 BKN029 08/04 Q1012 BLU BLU
  • 280920Z 26010KT 9999 -SHRA BKN018 BKN040 09/03 Q1011 WHT BLU TEMPO WHT

TAF TAF ETMN
Valid from the 28 at 11:00 until the 28 at 20:00 UTC


281038Z 2811/2820 24012KT 9999 NSW SCT015 BKN040
PROB30 2811/2815 25015KT 7000 -SHRA SCT010 BKN015
BECMG 2815/2818 29013KT 9999 NSW SCT015 SCT030
No reported NOTAMs for that airfield.



MET'MAP, your aeronautical weather chart ! - Copyright ORBIFLY December 2007 - Disclaimer

ORBIFLY MET'MAP TEAM :

Programming & Development : Alexandra Zaïnal
Concept & Development : Baudouin d'Aumeries
Co-Development & Prog : Marc-Olivier Méhu
Technical & hardware support : Manuel Goepfert

Contact : metmap@orbifly.com




SOURCES & CREDITS :

   NOAA